sensor_id;sensor_type;location;lat;lon;timestamp;pressure;altitude;pressure_sealevel;temperature;humidity
73501;BME280;61721;42.206;25.320;2023-11-21T00:00:57;99376.72;;;9.84;47.96
73501;BME280;61721;42.206;25.320;2023-11-21T00:03:27;99385.44;;;9.70;48.69
73501;BME280;61721;42.206;25.320;2023-11-21T00:05:55;99386.25;;;9.54;48.76
73501;BME280;61721;42.206;25.320;2023-11-21T00:08:22;99393.22;;;9.23;49.51
73501;BME280;61721;42.206;25.320;2023-11-21T00:10:51;99400.53;;;8.27;52.07
73501;BME280;61721;42.206;25.320;2023-11-21T00:13:18;99412.06;;;8.01;53.75
73501;BME280;61721;42.206;25.320;2023-11-21T00:15:46;99412.66;;;8.31;53.49
73501;BME280;61721;42.206;25.320;2023-11-21T00:18:13;99421.44;;;9.27;50.88
73501;BME280;61721;42.206;25.320;2023-11-21T00:20:40;99411.13;;;9.56;50.30
73501;BME280;61721;42.206;25.320;2023-11-21T00:23:07;99421.31;;;9.36;49.06
73501;BME280;61721;42.206;25.320;2023-11-21T00:25:35;99411.72;;;8.92;50.56
73501;BME280;61721;42.206;25.320;2023-11-21T00:28:04;99419.63;;;8.93;51.25
73501;BME280;61721;42.206;25.320;2023-11-21T00:30:32;99411.41;;;8.95;50.71
73501;BME280;61721;42.206;25.320;2023-11-21T00:32:59;99421.00;;;8.71;51.63
73501;BME280;61721;42.206;25.320;2023-11-21T00:35:26;99420.00;;;9.40;50.02
73501;BME280;61721;42.206;25.320;2023-11-21T00:37:53;99421.53;;;8.49;51.50
73501;BME280;61721;42.206;25.320;2023-11-21T00:40:21;99411.53;;;8.15;52.17
73501;BME280;61721;42.206;25.320;2023-11-21T00:42:49;99412.06;;;8.01;52.97
73501;BME280;61721;42.206;25.320;2023-11-21T00:45:17;99405.09;;;8.08;52.32
73501;BME280;61721;42.206;25.320;2023-11-21T00:47:45;99411.94;;;7.67;52.52
73501;BME280;61721;42.206;25.320;2023-11-21T00:50:12;99416.13;;;7.07;55.91
73501;BME280;61721;42.206;25.320;2023-11-21T00:52:40;99415.47;;;7.23;55.43
73501;BME280;61721;42.206;25.320;2023-11-21T00:55:07;99408.88;;;7.80;54.49
73501;BME280;61721;42.206;25.320;2023-11-21T00:57:36;99404.75;;;8.29;52.38
73501;BME280;61721;42.206;25.320;2023-11-21T01:00:05;99402.00;;;8.21;52.53
73501;BME280;61721;42.206;25.320;2023-11-21T01:02:40;99396.56;;;8.31;52.38
73501;BME280;61721;42.206;25.320;2023-11-21T01:05:08;99397.28;;;8.33;52.62
73501;BME280;61721;42.206;25.320;2023-11-21T01:07:36;99396.97;;;8.00;53.87
73501;BME280;61721;42.206;25.320;2023-11-21T01:10:03;99393.44;;;8.35;53.63
73501;BME280;61721;42.206;25.320;2023-11-21T01:12:34;99398.41;;;8.12;53.56
73501;BME280;61721;42.206;25.320;2023-11-21T01:15:01;99410.00;;;8.13;53.95
73501;BME280;61721;42.206;25.320;2023-11-21T01:17:28;99405.91;;;8.70;51.15
73501;BME280;61721;42.206;25.320;2023-11-21T01:19:57;99406.88;;;7.82;52.35
73501;BME280;61721;42.206;25.320;2023-11-21T01:22:24;99411.50;;;7.72;52.87
73501;BME280;61721;42.206;25.320;2023-11-21T01:24:52;99409.41;;;7.83;52.64
73501;BME280;61721;42.206;25.320;2023-11-21T01:27:20;99410.19;;;7.76;52.51
73501;BME280;61721;42.206;25.320;2023-11-21T01:29:47;99404.72;;;8.03;51.74
73501;BME280;61721;42.206;25.320;2023-11-21T01:32:15;99404.03;;;8.01;51.54
73501;BME280;61721;42.206;25.320;2023-11-21T01:34:43;99415.81;;;7.91;52.43
73501;BME280;61721;42.206;25.320;2023-11-21T01:37:11;99413.25;;;7.63;53.32
73501;BME280;61721;42.206;25.320;2023-11-21T01:39:39;99409.00;;;7.96;52.74
73501;BME280;61721;42.206;25.320;2023-11-21T01:42:07;99402.94;;;8.12;52.75
73501;BME280;61721;42.206;25.320;2023-11-21T01:44:34;99403.47;;;8.15;53.09
73501;BME280;61721;42.206;25.320;2023-11-21T01:47:02;99398.72;;;8.09;53.41
73501;BME280;61721;42.206;25.320;2023-11-21T01:49:32;99384.78;;;8.75;51.94
73501;BME280;61721;42.206;25.320;2023-11-21T01:52:00;99383.28;;;8.29;53.09
73501;BME280;61721;42.206;25.320;2023-11-21T01:54:30;99380.19;;;8.34;53.05
73501;BME280;61721;42.206;25.320;2023-11-21T01:56:58;99386.81;;;7.86;53.99
73501;BME280;61721;42.206;25.320;2023-11-21T01:59:34;99398.97;;;7.80;54.98
73501;BME280;61721;42.206;25.320;2023-11-21T02:02:02;99387.06;;;8.19;53.80
73501;BME280;61721;42.206;25.320;2023-11-21T02:04:30;99387.31;;;8.07;54.01
73501;BME280;61721;42.206;25.320;2023-11-21T02:06:59;99389.94;;;7.99;54.63
73501;BME280;61721;42.206;25.320;2023-11-21T02:09:28;99394.06;;;8.11;54.39
73501;BME280;61721;42.206;25.320;2023-11-21T02:11:57;99394.91;;;8.12;54.35
73501;BME280;61721;42.206;25.320;2023-11-21T02:14:24;99387.13;;;7.47;55.83
73501;BME280;61721;42.206;25.320;2023-11-21T02:16:54;99385.13;;;7.32;55.81
73501;BME280;61721;42.206;25.320;2023-11-21T02:19:23;99392.19;;;7.51;55.32
73501;BME280;61721;42.206;25.320;2023-11-21T02:21:52;99387.28;;;7.64;54.75
73501;BME280;61721;42.206;25.320;2023-11-21T02:24:21;99382.84;;;7.55;54.16
73501;BME280;61721;42.206;25.320;2023-11-21T02:26:49;99387.31;;;7.19;54.90
73501;BME280;61721;42.206;25.320;2023-11-21T02:29:18;99387.38;;;7.09;54.73
73501;BME280;61721;42.206;25.320;2023-11-21T02:31:48;99382.59;;;7.03;55.15
73501;BME280;61721;42.206;25.320;2023-11-21T02:34:15;99374.38;;;7.14;54.80
73501;BME280;61721;42.206;25.320;2023-11-21T02:36:44;99378.94;;;7.04;54.98
73501;BME280;61721;42.206;25.320;2023-11-21T02:39:14;99384.38;;;7.12;54.52
73501;BME280;61721;42.206;25.320;2023-11-21T02:41:43;99380.50;;;7.24;54.43
73501;BME280;61721;42.206;25.320;2023-11-21T02:44:11;99376.34;;;7.57;53.48
73501;BME280;61721;42.206;25.320;2023-11-21T02:46:38;99381.84;;;7.56;53.74
73501;BME280;61721;42.206;25.320;2023-11-21T02:49:06;99381.41;;;8.22;52.39
73501;BME280;61721;42.206;25.320;2023-11-21T02:51:35;99379.66;;;8.12;52.46
73501;BME280;61721;42.206;25.320;2023-11-21T02:54:03;99382.25;;;7.61;54.09
73501;BME280;61721;42.206;25.320;2023-11-21T02:56:32;99382.38;;;7.59;54.52
73501;BME280;61721;42.206;25.320;2023-11-21T02:59:01;99377.88;;;8.21;53.13
73501;BME280;61721;42.206;25.320;2023-11-21T03:01:28;99376.34;;;8.19;52.74
73501;BME280;61721;42.206;25.320;2023-11-21T03:03:56;99382.63;;;8.09;52.62
73501;BME280;61721;42.206;25.320;2023-11-21T03:06:23;99382.78;;;7.64;53.83
73501;BME280;61721;42.206;25.320;2023-11-21T03:08:50;99385.13;;;7.49;54.23
73501;BME280;61721;42.206;25.320;2023-11-21T03:11:17;99381.44;;;7.33;54.63
73501;BME280;61721;42.206;25.320;2023-11-21T03:13:45;99379.84;;;7.40;54.48
73501;BME280;61721;42.206;25.320;2023-11-21T03:16:15;99384.44;;;7.30;54.50
73501;BME280;61721;42.206;25.320;2023-11-21T03:18:42;99395.56;;;7.53;54.30
73501;BME280;61721;42.206;25.320;2023-11-21T03:21:10;99394.03;;;7.68;53.74
73501;BME280;61721;42.206;25.320;2023-11-21T03:23:37;99390.88;;;7.37;54.48
73501;BME280;61721;42.206;25.320;2023-11-21T03:26:06;99397.53;;;7.86;53.77
73501;BME280;61721;42.206;25.320;2023-11-21T03:28:34;99393.50;;;7.64;54.05
73501;BME280;61721;42.206;25.320;2023-11-21T03:31:01;99387.91;;;7.58;54.83
73501;BME280;61721;42.206;25.320;2023-11-21T03:33:30;99377.72;;;7.61;54.75
73501;BME280;61721;42.206;25.320;2023-11-21T03:35:57;99384.06;;;7.78;54.82
73501;BME280;61721;42.206;25.320;2023-11-21T03:38:24;99374.53;;;8.01;53.90
73501;BME280;61721;42.206;25.320;2023-11-21T03:40:53;99371.69;;;8.03;54.33
73501;BME280;61721;42.206;25.320;2023-11-21T03:43:27;99371.38;;;8.06;54.14
73501;BME280;61721;42.206;25.320;2023-11-21T03:45:55;99368.63;;;7.72;55.42
73501;BME280;61721;42.206;25.320;2023-11-21T03:51:28;99362.97;;;7.83;55.48
73501;BME280;61721;42.206;25.320;2023-11-21T03:53:55;99362.00;;;7.84;55.38
73501;BME280;61721;42.206;25.320;2023-11-21T03:56:22;99362.34;;;7.63;55.97
73501;BME280;61721;42.206;25.320;2023-11-21T03:58:50;99361.25;;;7.74;55.75
73501;BME280;61721;42.206;25.320;2023-11-21T04:01:21;99365.19;;;8.05;55.16
73501;BME280;61721;42.206;25.320;2023-11-21T04:03:49;99368.00;;;8.04;55.09
73501;BME280;61721;42.206;25.320;2023-11-21T04:06:16;99375.97;;;8.13;55.15
73501;BME280;61721;42.206;25.320;2023-11-21T04:08:45;99371.69;;;8.03;55.48
73501;BME280;61721;42.206;25.320;2023-11-21T04:11:13;99366.81;;;8.24;55.14
73501;BME280;61721;42.206;25.320;2023-11-21T04:13:41;99377.28;;;8.09;55.48
73501;BME280;61721;42.206;25.320;2023-11-21T04:16:09;99371.16;;;7.99;56.05
73501;BME280;61721;42.206;25.320;2023-11-21T04:18:37;99371.72;;;8.29;55.11
73501;BME280;61721;42.206;25.320;2023-11-21T04:21:05;99378.34;;;8.17;55.32
73501;BME280;61721;42.206;25.320;2023-11-21T04:23:34;99377.91;;;8.47;54.84
73501;BME280;61721;42.206;25.320;2023-11-21T04:26:03;99376.31;;;8.62;54.20
73501;BME280;61721;42.206;25.320;2023-11-21T04:28:40;99378.50;;;8.59;54.34
73501;BME280;61721;42.206;25.320;2023-11-21T04:31:07;99382.69;;;8.35;54.70
73501;BME280;61721;42.206;25.320;2023-11-21T04:33:34;99375.41;;;8.28;54.45
73501;BME280;61721;42.206;25.320;2023-11-21T04:36:02;99378.78;;;8.82;53.00
73501;BME280;61721;42.206;25.320;2023-11-21T04:38:29;99387.00;;;8.80;52.74
73501;BME280;61721;42.206;25.320;2023-11-21T04:40:56;99390.16;;;9.09;52.16
73501;BME280;61721;42.206;25.320;2023-11-21T04:43:25;99394.75;;;8.57;53.37
73501;BME280;61721;42.206;25.320;2023-11-21T04:45:52;99396.50;;;8.23;54.63
73501;BME280;61721;42.206;25.320;2023-11-21T04:48:20;99404.16;;;8.18;55.07
73501;BME280;61721;42.206;25.320;2023-11-21T04:50:47;99401.69;;;6.90;57.10
73501;BME280;61721;42.206;25.320;2023-11-21T04:53:14;99408.22;;;7.05;57.20
73501;BME280;61721;42.206;25.320;2023-11-21T04:55:42;99400.31;;;6.30;58.83
73501;BME280;61721;42.206;25.320;2023-11-21T04:58:09;99396.22;;;6.45;58.85
73501;BME280;61721;42.206;25.320;2023-11-21T05:00:39;99406.31;;;6.51;58.98
73501;BME280;61721;42.206;25.320;2023-11-21T05:03:07;99402.72;;;6.33;60.12
73501;BME280;61721;42.206;25.320;2023-11-21T05:05:35;99409.75;;;6.24;59.95
73501;BME280;61721;42.206;25.320;2023-11-21T05:08:03;99410.41;;;6.55;59.38
73501;BME280;61721;42.206;25.320;2023-11-21T05:10:31;99405.69;;;6.20;59.97
73501;BME280;61721;42.206;25.320;2023-11-21T05:13:01;99412.75;;;6.68;58.77
73501;BME280;61721;42.206;25.320;2023-11-21T05:15:45;99425.53;;;7.11;57.45
73501;BME280;61721;42.206;25.320;2023-11-21T05:18:12;99436.94;;;7.13;57.74
73501;BME280;61721;42.206;25.320;2023-11-21T05:20:41;99428.41;;;7.27;56.78
73501;BME280;61721;42.206;25.320;2023-11-21T05:23:09;99423.75;;;7.29;57.35
73501;BME280;61721;42.206;25.320;2023-11-21T05:25:37;99426.53;;;7.37;57.15
73501;BME280;61721;42.206;25.320;2023-11-21T05:28:04;99435.56;;;7.36;57.11
73501;BME280;61721;42.206;25.320;2023-11-21T05:30:35;99439.38;;;7.34;56.83
73501;BME280;61721;42.206;25.320;2023-11-21T05:33:05;99436.44;;;7.55;56.39
73501;BME280;61721;42.206;25.320;2023-11-21T05:35:34;99443.78;;;6.98;57.74
73501;BME280;61721;42.206;25.320;2023-11-21T05:38:01;99444.56;;;7.08;57.80
73501;BME280;61721;42.206;25.320;2023-11-21T05:40:28;99437.75;;;6.30;59.12
73501;BME280;61721;42.206;25.320;2023-11-21T05:42:56;99430.88;;;6.17;59.83
73501;BME280;61721;42.206;25.320;2023-11-21T05:45:23;99429.47;;;6.13;60.53
73501;BME280;61721;42.206;25.320;2023-11-21T05:47:51;99431.03;;;5.97;60.41
73501;BME280;61721;42.206;25.320;2023-11-21T05:50:20;99429.31;;;5.86;61.04
73501;BME280;61721;42.206;25.320;2023-11-21T05:52:51;99418.94;;;5.93;60.79
73501;BME280;61721;42.206;25.320;2023-11-21T05:55:18;99426.25;;;6.10;60.33
73501;BME280;61721;42.206;25.320;2023-11-21T05:57:50;99424.50;;;6.47;59.44
73501;BME280;61721;42.206;25.320;2023-11-21T06:00:17;99424.81;;;6.81;58.13
73501;BME280;61721;42.206;25.320;2023-11-21T06:02:46;99431.97;;;7.45;57.06
73501;BME280;61721;42.206;25.320;2023-11-21T06:05:17;99429.88;;;7.67;56.21
73501;BME280;61721;42.206;25.320;2023-11-21T06:07:46;99438.53;;;7.78;56.03
73501;BME280;61721;42.206;25.320;2023-11-21T06:10:13;99432.69;;;6.83;57.48
73501;BME280;61721;42.206;25.320;2023-11-21T06:12:40;99430.38;;;6.98;57.83
73501;BME280;61721;42.206;25.320;2023-11-21T06:15:09;99442.19;;;7.32;57.10
73501;BME280;61721;42.206;25.320;2023-11-21T06:17:39;99433.91;;;6.61;58.74
73501;BME280;61721;42.206;25.320;2023-11-21T06:20:09;99433.91;;;6.61;59.33
73501;BME280;61721;42.206;25.320;2023-11-21T06:22:40;99443.00;;;7.15;58.51
73501;BME280;61721;42.206;25.320;2023-11-21T06:25:11;99439.13;;;7.90;56.43
73501;BME280;61721;42.206;25.320;2023-11-21T06:27:40;99445.06;;;7.48;55.94
73501;BME280;61721;42.206;25.320;2023-11-21T06:30:08;99441.66;;;7.74;56.11
73501;BME280;61721;42.206;25.320;2023-11-21T06:32:36;99448.91;;;7.99;56.05
73501;BME280;61721;42.206;25.320;2023-11-21T06:35:04;99445.84;;;8.48;54.92
73501;BME280;61721;42.206;25.320;2023-11-21T06:37:32;99454.94;;;8.81;54.18
73501;BME280;61721;42.206;25.320;2023-11-21T06:40:00;99454.38;;;8.69;53.90
73501;BME280;61721;42.206;25.320;2023-11-21T06:42:31;99448.47;;;9.25;52.54
73501;BME280;61721;42.206;25.320;2023-11-21T06:44:59;99439.19;;;9.54;52.39
73501;BME280;61721;42.206;25.320;2023-11-21T06:47:29;99449.91;;;9.46;52.36
73501;BME280;61721;42.206;25.320;2023-11-21T06:49:57;99458.91;;;9.87;51.74
73501;BME280;61721;42.206;25.320;2023-11-21T06:52:24;99459.28;;;10.00;51.47
73501;BME280;61721;42.206;25.320;2023-11-21T06:54:52;99458.09;;;9.86;52.00
73501;BME280;61721;42.206;25.320;2023-11-21T06:57:19;99457.09;;;9.95;51.67
73501;BME280;61721;42.206;25.320;2023-11-21T06:59:48;99460.03;;;9.60;52.54
73501;BME280;61721;42.206;25.320;2023-11-21T07:02:16;99463.38;;;8.86;54.27
73501;BME280;61721;42.206;25.320;2023-11-21T07:04:44;99455.13;;;9.13;54.60
73501;BME280;61721;42.206;25.320;2023-11-21T07:07:12;99458.09;;;10.02;52.71
73501;BME280;61721;42.206;25.320;2023-11-21T07:09:39;99451.03;;;10.74;51.22
73501;BME280;61721;42.206;25.320;2023-11-21T07:12:07;99444.78;;;10.90;50.74
73501;BME280;61721;42.206;25.320;2023-11-21T07:14:34;99437.47;;;11.15;50.37
73501;BME280;61721;42.206;25.320;2023-11-21T07:17:04;99431.63;;;11.43;50.30
73501;BME280;61721;42.206;25.320;2023-11-21T07:19:32;99432.47;;;12.05;49.32
73501;BME280;61721;42.206;25.320;2023-11-21T07:22:00;99423.91;;;12.01;49.36
73501;BME280;61721;42.206;25.320;2023-11-21T07:24:27;99419.75;;;12.14;49.17
73501;BME280;61721;42.206;25.320;2023-11-21T07:26:54;99420.50;;;12.45;48.76
73501;BME280;61721;42.206;25.320;2023-11-21T07:29:23;99429.19;;;12.55;48.51
73501;BME280;61721;42.206;25.320;2023-11-21T07:31:51;99431.41;;;12.14;48.77
73501;BME280;61721;42.206;25.320;2023-11-21T07:34:23;99429.72;;;12.88;47.88
73501;BME280;61721;42.206;25.320;2023-11-21T07:36:50;99432.25;;;13.34;47.05
73501;BME280;61721;42.206;25.320;2023-11-21T07:39:17;99431.19;;;13.50;47.05
73501;BME280;61721;42.206;25.320;2023-11-21T07:41:45;99435.06;;;13.77;46.87
73501;BME280;61721;42.206;25.320;2023-11-21T07:44:15;99425.75;;;13.64;46.35
73501;BME280;61721;42.206;25.320;2023-11-21T07:46:43;99435.22;;;12.95;48.13
73501;BME280;61721;42.206;25.320;2023-11-21T07:49:11;99424.97;;;12.90;47.93
73501;BME280;61721;42.206;25.320;2023-11-21T07:51:42;99434.66;;;12.99;48.58
73501;BME280;61721;42.206;25.320;2023-11-21T07:54:16;99428.94;;;13.53;47.99
73501;BME280;61721;42.206;25.320;2023-11-21T07:56:43;99425.25;;;13.40;47.68
73501;BME280;61721;42.206;25.320;2023-11-21T07:59:11;99433.75;;;14.09;47.27
73501;BME280;61721;42.206;25.320;2023-11-21T08:01:38;99425.03;;;14.56;45.34
73501;BME280;61721;42.206;25.320;2023-11-21T08:04:06;99424.66;;;14.87;45.11
73501;BME280;61721;42.206;25.320;2023-11-21T08:06:34;99423.28;;;14.98;44.10
73501;BME280;61721;42.206;25.320;2023-11-21T08:09:02;99418.00;;;14.61;44.46
73501;BME280;61721;42.206;25.320;2023-11-21T08:11:30;99415.97;;;14.98;44.23
73501;BME280;61721;42.206;25.320;2023-11-21T08:13:59;99424.16;;;15.46;43.11
73501;BME280;61721;42.206;25.320;2023-11-21T08:16:26;99412.03;;;15.42;42.54
73501;BME280;61721;42.206;25.320;2023-11-21T08:18:54;99429.25;;;15.62;42.55
73501;BME280;61721;42.206;25.320;2023-11-21T08:21:22;99428.59;;;15.53;42.81
73501;BME280;61721;42.206;25.320;2023-11-21T08:23:50;99426.56;;;14.93;44.03
73501;BME280;61721;42.206;25.320;2023-11-21T08:26:21;99426.56;;;15.27;42.90
73501;BME280;61721;42.206;25.320;2023-11-21T08:28:49;99439.53;;;14.98;43.98
73501;BME280;61721;42.206;25.320;2023-11-21T08:31:24;99436.03;;;14.76;45.00
73501;BME280;61721;42.206;25.320;2023-11-21T08:33:52;99431.88;;;15.08;44.61
73501;BME280;61721;42.206;25.320;2023-11-21T08:36:21;99423.47;;;15.78;42.76
73501;BME280;61721;42.206;25.320;2023-11-21T08:38:48;99429.22;;;16.23;41.66
73501;BME280;61721;42.206;25.320;2023-11-21T08:41:18;99425.69;;;16.42;40.62
73501;BME280;61721;42.206;25.320;2023-11-21T08:43:50;99416.28;;;16.71;41.17
73501;BME280;61721;42.206;25.320;2023-11-21T08:46:17;99409.53;;;17.20;40.11
73501;BME280;61721;42.206;25.320;2023-11-21T08:48:44;99411.88;;;16.90;40.67
73501;BME280;61721;42.206;25.320;2023-11-21T08:51:13;99409.25;;;17.41;39.59
73501;BME280;61721;42.206;25.320;2023-11-21T08:53:41;99406.38;;;17.16;39.70
73501;BME280;61721;42.206;25.320;2023-11-21T08:56:12;99404.31;;;17.05;40.29
73501;BME280;61721;42.206;25.320;2023-11-21T08:58:40;99402.88;;;16.96;39.93
73501;BME280;61721;42.206;25.320;2023-11-21T09:01:09;99398.50;;;16.95;40.25
73501;BME280;61721;42.206;25.320;2023-11-21T09:03:37;99398.47;;;17.02;40.03
73501;BME280;61721;42.206;25.320;2023-11-21T09:06:07;99383.84;;;16.96;40.81
73501;BME280;61721;42.206;25.320;2023-11-21T09:08:38;99384.91;;;16.29;41.45
73501;BME280;61721;42.206;25.320;2023-11-21T09:11:05;99378.25;;;16.65;42.08
73501;BME280;61721;42.206;25.320;2023-11-21T09:13:33;99374.22;;;16.94;41.56
73501;BME280;61721;42.206;25.320;2023-11-21T09:16:02;99370.34;;;17.28;41.24
73501;BME280;61721;42.206;25.320;2023-11-21T09:18:31;99367.75;;;16.88;42.02
73501;BME280;61721;42.206;25.320;2023-11-21T09:20:58;99369.53;;;18.10;39.38
73501;BME280;61721;42.206;25.320;2023-11-21T09:23:26;99357.06;;;18.21;39.05
73501;BME280;61721;42.206;25.320;2023-11-21T09:25:53;99353.84;;;18.30;38.56
73501;BME280;61721;42.206;25.320;2023-11-21T09:28:23;99365.63;;;18.24;38.84
73501;BME280;61721;42.206;25.320;2023-11-21T09:30:50;99359.56;;;18.47;38.80
73501;BME280;61721;42.206;25.320;2023-11-21T09:33:18;99360.59;;;18.96;38.04
73501;BME280;61721;42.206;25.320;2023-11-21T09:35:49;99360.56;;;18.77;38.10
73501;BME280;61721;42.206;25.320;2023-11-21T09:38:16;99353.69;;;19.48;37.29
73501;BME280;61721;42.206;25.320;2023-11-21T09:40:45;99355.53;;;19.18;37.16
73501;BME280;61721;42.206;25.320;2023-11-21T09:43:16;99348.22;;;19.48;36.70
73501;BME280;61721;42.206;25.320;2023-11-21T09:45:45;99346.56;;;19.65;36.34
73501;BME280;61721;42.206;25.320;2023-11-21T09:48:14;99343.91;;;19.59;36.01
73501;BME280;61721;42.206;25.320;2023-11-21T09:50:42;99345.75;;;19.10;37.02
73501;BME280;61721;42.206;25.320;2023-11-21T09:53:19;99328.41;;;19.71;36.81
73501;BME280;61721;42.206;25.320;2023-11-21T09:55:48;99328.97;;;19.61;37.06
73501;BME280;61721;42.206;25.320;2023-11-21T09:58:17;99328.34;;;18.68;38.10
73501;BME280;61721;42.206;25.320;2023-11-21T10:00:46;99327.63;;;18.97;38.22
73501;BME280;61721;42.206;25.320;2023-11-21T10:03:14;99316.22;;;18.64;38.60
73501;BME280;61721;42.206;25.320;2023-11-21T10:05:42;99311.88;;;18.31;39.33
73501;BME280;61721;42.206;25.320;2023-11-21T10:08:12;99302.34;;;17.97;40.45
73501;BME280;61721;42.206;25.320;2023-11-21T10:10:44;99308.97;;;18.08;40.27
73501;BME280;61721;42.206;25.320;2023-11-21T10:13:12;99310.81;;;17.44;41.15
73501;BME280;61721;42.206;25.320;2023-11-21T10:15:42;99305.25;;;17.26;42.14
73501;BME280;61721;42.206;25.320;2023-11-21T10:18:15;99298.78;;;17.20;41.84
73501;BME280;61721;42.206;25.320;2023-11-21T10:20:44;99299.91;;;18.14;40.88
73501;BME280;61721;42.206;25.320;2023-11-21T10:23:19;99289.50;;;18.04;40.79
73501;BME280;61721;42.206;25.320;2023-11-21T10:25:49;99288.91;;;18.45;40.78
73501;BME280;61721;42.206;25.320;2023-11-21T10:28:17;99288.97;;;18.82;39.60
73501;BME280;61721;42.206;25.320;2023-11-21T10:30:44;99281.81;;;19.36;39.05
73501;BME280;61721;42.206;25.320;2023-11-21T10:33:12;99272.72;;;19.24;39.08
73501;BME280;61721;42.206;25.320;2023-11-21T10:35:42;99266.91;;;19.50;38.59
73501;BME280;61721;42.206;25.320;2023-11-21T10:38:12;99255.84;;;18.97;39.78
73501;BME280;61721;42.206;25.320;2023-11-21T10:40:41;99260.91;;;19.60;37.67
73501;BME280;61721;42.206;25.320;2023-11-21T10:43:12;99257.41;;;19.23;38.77
73501;BME280;61721;42.206;25.320;2023-11-21T10:45:41;99255.41;;;19.90;37.85
73501;BME280;61721;42.206;25.320;2023-11-21T10:48:10;99254.75;;;20.53;36.88
73501;BME280;61721;42.206;25.320;2023-11-21T10:50:38;99250.44;;;20.22;36.82
73501;BME280;61721;42.206;25.320;2023-11-21T10:53:05;99240.09;;;20.00;37.14
73501;BME280;61721;42.206;25.320;2023-11-21T10:55:34;99245.47;;;20.54;36.73
73501;BME280;61721;42.206;25.320;2023-11-21T10:58:03;99245.72;;;21.44;35.29
73501;BME280;61721;42.206;25.320;2023-11-21T11:00:32;99239.84;;;21.24;35.02
73501;BME280;61721;42.206;25.320;2023-11-21T11:03:01;99235.34;;;20.19;36.74
73501;BME280;61721;42.206;25.320;2023-11-21T11:05:30;99229.50;;;20.04;37.25
73501;BME280;61721;42.206;25.320;2023-11-21T11:07:59;99235.97;;;20.45;36.43
73501;BME280;61721;42.206;25.320;2023-11-21T11:10:27;99221.75;;;19.77;36.97
73501;BME280;61721;42.206;25.320;2023-11-21T11:12:55;99224.38;;;18.58;39.46
73501;BME280;61721;42.206;25.320;2023-11-21T11:15:25;99218.44;;;18.06;40.86
73501;BME280;61721;42.206;25.320;2023-11-21T11:17:53;99220.41;;;18.78;40.35
73501;BME280;61721;42.206;25.320;2023-11-21T11:20:24;99214.00;;;19.33;39.20
73501;BME280;61721;42.206;25.320;2023-11-21T11:23:07;99202.28;;;19.44;38.85
73501;BME280;61721;42.206;25.320;2023-11-21T11:25:49;99212.06;;;18.73;40.23
73501;BME280;61721;42.206;25.320;2023-11-21T11:28:21;99193.47;;;18.09;41.56
73501;BME280;61721;42.206;25.320;2023-11-21T11:31:01;99191.59;;;17.84;42.44
73501;BME280;61721;42.206;25.320;2023-11-21T11:33:37;99190.97;;;17.58;43.01
73501;BME280;61721;42.206;25.320;2023-11-21T11:36:13;99186.09;;;17.35;43.86
73501;BME280;61721;42.206;25.320;2023-11-21T11:38:46;99191.28;;;17.74;42.81
73501;BME280;61721;42.206;25.320;2023-11-21T11:41:24;99193.28;;;17.86;42.30
73501;BME280;61721;42.206;25.320;2023-11-21T11:43:53;99197.22;;;17.58;43.06
73501;BME280;61721;42.206;25.320;2023-11-21T11:46:40;99183.78;;;17.63;43.02
73501;BME280;61721;42.206;25.320;2023-11-21T11:49:08;99172.44;;;18.16;42.34
73501;BME280;61721;42.206;25.320;2023-11-21T11:51:38;99182.72;;;18.32;41.67
73501;BME280;61721;42.206;25.320;2023-11-21T11:54:05;99167.66;;;18.48;41.15
73501;BME280;61721;42.206;25.320;2023-11-21T11:56:34;99160.44;;;17.80;42.97
73501;BME280;61721;42.206;25.320;2023-11-21T11:59:05;99162.84;;;17.07;44.20
73501;BME280;61721;42.206;25.320;2023-11-21T12:01:36;99148.13;;;17.15;44.67
73501;BME280;61721;42.206;25.320;2023-11-21T12:04:26;99140.63;;;17.42;43.93
73501;BME280;61721;42.206;25.320;2023-11-21T12:07:04;99142.47;;;17.16;44.27
73501;BME280;61721;42.206;25.320;2023-11-21T12:09:33;99137.22;;;17.46;43.84
73501;BME280;61721;42.206;25.320;2023-11-21T12:12:02;99128.34;;;17.58;43.58
73501;BME280;61721;42.206;25.320;2023-11-21T12:14:30;99131.56;;;17.98;43.03
73501;BME280;61721;42.206;25.320;2023-11-21T12:17:00;99115.84;;;17.50;43.62
73501;BME280;61721;42.206;25.320;2023-11-21T12:19:28;99118.34;;;16.95;45.13
73501;BME280;61721;42.206;25.320;2023-11-21T12:21:55;99109.91;;;16.72;45.85
73501;BME280;61721;42.206;25.320;2023-11-21T12:24:23;99104.97;;;16.49;46.22
73501;BME280;61721;42.206;25.320;2023-11-21T12:26:50;99107.03;;;16.53;46.21
73501;BME280;61721;42.206;25.320;2023-11-21T12:29:19;99102.47;;;16.47;46.61
73501;BME280;61721;42.206;25.320;2023-11-21T12:31:48;99099.03;;;16.72;46.20
73501;BME280;61721;42.206;25.320;2023-11-21T12:34:17;99096.22;;;16.85;45.42
73501;BME280;61721;42.206;25.320;2023-11-21T12:36:45;99097.63;;;16.56;46.45
73501;BME280;61721;42.206;25.320;2023-11-21T12:39:12;99094.38;;;16.79;45.81
73501;BME280;61721;42.206;25.320;2023-11-21T12:41:40;99099.47;;;16.69;45.96
73501;BME280;61721;42.206;25.320;2023-11-21T12:44:12;99096.81;;;16.94;45.78
73501;BME280;61721;42.206;25.320;2023-11-21T12:46:42;99102.53;;;16.34;47.02
73501;BME280;61721;42.206;25.320;2023-11-21T12:49:11;99097.53;;;16.31;47.33
73501;BME280;61721;42.206;25.320;2023-11-21T12:51:45;99093.25;;;16.93;46.10
73501;BME280;61721;42.206;25.320;2023-11-21T12:54:12;99098.09;;;16.46;46.94
73501;BME280;61721;42.206;25.320;2023-11-21T12:56:40;99093.59;;;16.72;46.47
73501;BME280;61721;42.206;25.320;2023-11-21T12:59:07;99087.50;;;16.25;47.25
73501;BME280;61721;42.206;25.320;2023-11-21T13:01:41;99075.50;;;16.46;47.35
73501;BME280;61721;42.206;25.320;2023-11-21T13:04:09;99075.66;;;16.58;46.86
73501;BME280;61721;42.206;25.320;2023-11-21T13:06:37;99076.38;;;16.84;46.58